createdAt,value
2023-03-05T00:01:09.037Z,1.60
2023-03-05T00:03:35.682Z,1.50
2023-03-05T00:06:02.593Z,1.40
2023-03-05T00:08:29.871Z,1.50
2023-03-05T00:11:00.142Z,1.30
2023-03-05T00:13:26.844Z,1.20
2023-03-05T00:15:53.701Z,1.40
2023-03-05T00:18:20.340Z,1.40
2023-03-05T00:20:47.278Z,1.30
2023-03-05T00:23:13.998Z,1.30
2023-03-05T00:25:41.665Z,1.40
2023-03-05T00:28:08.421Z,1.40
2023-03-05T00:30:35.489Z,1.30
2023-03-05T00:33:02.143Z,1.40
2023-03-05T00:35:29.133Z,1.40
2023-03-05T00:37:55.928Z,1.40
2023-03-05T00:40:22.678Z,1.60
2023-03-05T00:42:49.345Z,1.50
2023-03-05T00:45:15.926Z,1.40
2023-03-05T00:47:42.502Z,1.40
2023-03-05T00:50:09.469Z,1.50
2023-03-05T00:52:36.071Z,1.50
2023-03-05T00:55:02.694Z,1.50
2023-03-05T00:57:29.335Z,1.50
2023-03-05T00:59:55.889Z,1.50
2023-03-05T01:02:22.476Z,1.40
2023-03-05T01:04:49.561Z,1.40
2023-03-05T01:07:16.184Z,1.50
2023-03-05T01:09:42.854Z,1.40
2023-03-05T01:12:09.539Z,1.40
2023-03-05T01:14:36.720Z,1.30
2023-03-05T01:17:04.036Z,1.30
2023-03-05T01:19:30.689Z,1.20
2023-03-05T01:21:57.295Z,1.30
2023-03-05T01:24:23.883Z,1.30
2023-03-05T01:26:50.685Z,1.40
2023-03-05T01:29:17.751Z,1.50
2023-03-05T01:31:44.441Z,1.50
2023-03-05T01:34:11.047Z,1.40
2023-03-05T01:36:37.631Z,1.40
2023-03-05T01:39:04.235Z,1.50
2023-03-05T01:41:30.851Z,1.40
2023-03-05T01:43:57.456Z,1.40
2023-03-05T01:46:36.873Z,1.40
2023-03-05T01:49:05.900Z,1.40
2023-03-05T01:51:35.437Z,1.40
2023-03-05T01:54:03.253Z,1.40
2023-03-05T01:56:30.647Z,1.40
2023-03-05T01:59:03.309Z,1.40
2023-03-05T02:01:36.742Z,1.50
2023-03-05T02:04:03.518Z,1.60
2023-03-05T02:06:30.253Z,1.50
2023-03-05T02:08:56.881Z,1.60
2023-03-05T02:11:23.483Z,1.70
2023-03-05T02:13:50.076Z,1.50
2023-03-05T02:16:16.750Z,1.60
2023-03-05T02:18:43.454Z,1.70
2023-03-05T02:21:10.927Z,1.70
2023-03-05T02:23:38.350Z,1.70
2023-03-05T02:26:06.522Z,1.80
2023-03-05T02:28:38.962Z,1.80
2023-03-05T02:31:24.969Z,1.80
2023-03-05T02:33:52.768Z,1.90
2023-03-05T02:36:21.258Z,1.80
2023-03-05T02:38:48.098Z,1.90
2023-03-05T02:41:15.220Z,1.90
2023-03-05T02:43:41.982Z,2.00
2023-03-05T02:46:08.632Z,1.70
2023-03-05T02:48:35.388Z,2.50
2023-03-05T02:51:03.022Z,1.60
2023-03-05T02:53:29.661Z,1.50
2023-03-05T02:55:56.274Z,1.60
2023-03-05T02:58:23.221Z,1.70
2023-03-05T03:00:50.002Z,1.80
2023-03-05T03:03:16.843Z,1.70
2023-03-05T03:05:43.458Z,1.70
2023-03-05T03:08:10.445Z,1.60
2023-03-05T03:10:37.026Z,1.60
2023-03-05T03:13:03.884Z,1.70
2023-03-05T03:15:30.538Z,1.60
2023-03-05T03:17:57.134Z,1.60
2023-03-05T03:20:23.879Z,1.70
2023-03-05T03:22:50.554Z,1.80
2023-03-05T03:25:18.784Z,1.70
2023-03-05T03:27:45.522Z,1.80
2023-03-05T03:30:13.026Z,1.80
2023-03-05T03:32:39.637Z,1.80
2023-03-05T03:35:06.490Z,1.80
2023-03-05T03:37:33.246Z,1.80
2023-03-05T03:39:59.842Z,1.80
2023-03-05T03:42:26.714Z,1.70
2023-03-05T03:44:53.356Z,1.70
2023-03-05T03:47:20.028Z,1.80
2023-03-05T03:49:46.660Z,1.80
2023-03-05T03:52:13.267Z,1.90
2023-03-05T03:54:39.952Z,1.70
2023-03-05T03:57:06.524Z,1.80
2023-03-05T03:59:33.106Z,1.70
2023-03-05T04:01:59.673Z,1.80
2023-03-05T04:04:26.672Z,1.90
2023-03-05T04:06:53.394Z,1.80
2023-03-05T04:09:19.985Z,1.70
2023-03-05T04:11:46.586Z,1.60
2023-03-05T04:14:13.162Z,1.60
2023-03-05T04:16:39.813Z,1.70
2023-03-05T04:19:06.399Z,1.90
2023-03-05T04:21:32.991Z,1.80
2023-03-05T04:23:59.564Z,1.80
2023-03-05T04:26:26.121Z,1.80
2023-03-05T04:28:52.696Z,1.80
2023-03-05T04:31:20.642Z,1.70
2023-03-05T04:33:47.407Z,1.80
2023-03-05T04:36:13.984Z,1.90
2023-03-05T04:38:40.779Z,1.90
2023-03-05T04:41:07.467Z,2.00
2023-03-05T04:43:34.040Z,2.10
2023-03-05T04:46:00.628Z,2.20
2023-03-05T04:48:27.448Z,2.20
2023-03-05T04:50:54.096Z,2.20
2023-03-05T04:53:20.649Z,2.20
2023-03-05T04:55:51.845Z,2.30
2023-03-05T04:58:18.519Z,2.30
2023-03-05T05:00:45.179Z,2.10
2023-03-05T05:03:11.823Z,2.10
2023-03-05T05:05:38.501Z,2.10
2023-03-05T05:08:05.344Z,1.90
2023-03-05T05:10:32.363Z,2.00
2023-03-05T05:12:58.958Z,2.00
2023-03-05T05:15:25.604Z,1.90
2023-03-05T05:17:52.507Z,2.00
2023-03-05T05:20:19.989Z,2.00
2023-03-05T05:22:46.609Z,2.00
2023-03-05T05:25:13.231Z,2.10
2023-03-05T05:27:40.308Z,2.10
2023-03-05T05:30:07.674Z,2.00
2023-03-05T05:32:34.790Z,2.00
2023-03-05T05:35:01.548Z,2.10
2023-03-05T05:37:29.129Z,2.20
2023-03-05T05:39:55.799Z,2.30
2023-03-05T05:42:23.161Z,2.40
2023-03-05T05:44:50.260Z,2.50
2023-03-05T05:47:17.109Z,2.50
2023-03-05T05:49:43.687Z,2.50
2023-03-05T05:52:10.297Z,2.40
2023-03-05T05:54:36.902Z,2.30
2023-03-05T05:57:03.558Z,2.10
2023-03-05T05:59:30.155Z,2.20
2023-03-05T06:01:56.837Z,2.30
2023-03-05T06:04:23.463Z,2.40
2023-03-05T06:06:50.156Z,2.50
2023-03-05T06:09:16.839Z,2.40
2023-03-05T06:11:43.428Z,2.40
2023-03-05T06:14:10.661Z,2.50
2023-03-05T06:16:37.285Z,2.50
2023-03-05T06:19:04.626Z,2.40
2023-03-05T06:21:31.692Z,2.50
2023-03-05T06:24:01.236Z,2.60
2023-03-05T06:26:27.947Z,2.60
2023-03-05T06:28:54.928Z,2.60
2023-03-05T06:31:23.217Z,2.70
2023-03-05T06:33:50.072Z,2.70
2023-03-05T06:36:18.183Z,2.60
2023-03-05T06:38:45.243Z,2.70
2023-03-05T06:41:15.771Z,2.70
2023-03-05T06:43:43.220Z,2.80
2023-03-05T06:46:14.064Z,2.90
2023-03-05T06:48:41.184Z,2.90
2023-03-05T06:51:18.542Z,3.00
2023-03-05T06:53:46.789Z,3.10
2023-03-05T06:56:16.726Z,3.20
2023-03-05T06:58:44.450Z,3.20
2023-03-05T07:01:11.049Z,3.20
2023-03-05T07:03:37.913Z,3.10
2023-03-05T07:06:05.194Z,3.10
2023-03-05T07:08:32.345Z,3.20
2023-03-05T07:10:59.078Z,3.30
2023-03-05T07:13:25.973Z,3.20
2023-03-05T07:15:52.554Z,3.30
2023-03-05T07:18:19.239Z,3.30
2023-03-05T07:20:45.869Z,3.30
2023-03-05T07:23:12.488Z,3.20
2023-03-05T07:25:39.471Z,3.30
2023-03-05T07:28:07.017Z,3.40
2023-03-05T07:30:33.984Z,3.30
2023-03-05T07:33:00.594Z,3.40
2023-03-05T07:35:27.192Z,3.30
2023-03-05T07:37:55.005Z,3.30
2023-03-05T07:40:22.443Z,4.30
2023-03-05T07:42:52.247Z,3.30
2023-03-05T07:45:18.997Z,3.40
2023-03-05T07:47:45.586Z,3.30
2023-03-05T07:50:12.243Z,3.40
2023-03-05T07:52:38.840Z,3.30
2023-03-05T07:55:05.571Z,3.50
2023-03-05T07:57:32.170Z,3.50
2023-03-05T07:59:58.759Z,3.50
2023-03-05T08:02:25.511Z,4.10
2023-03-05T08:04:52.102Z,3.60
2023-03-05T08:07:18.775Z,3.80
2023-03-05T08:09:45.404Z,3.80
2023-03-05T08:12:12.040Z,3.70
2023-03-05T08:14:38.599Z,3.70
2023-03-05T08:17:05.770Z,3.80
2023-03-05T08:19:32.850Z,3.90
2023-03-05T08:21:59.607Z,3.90
2023-03-05T08:24:29.821Z,4.00
2023-03-05T08:26:57.591Z,4.00
2023-03-05T08:29:24.877Z,4.00
2023-03-05T08:31:53.606Z,4.20
2023-03-05T08:34:20.925Z,5.30
2023-03-05T08:36:47.933Z,4.30
2023-03-05T08:39:14.807Z,4.30
2023-03-05T08:41:41.480Z,4.30
2023-03-05T08:44:08.172Z,4.40
2023-03-05T08:46:34.893Z,4.30
2023-03-05T08:49:01.724Z,4.30
2023-03-05T08:51:28.331Z,4.50
2023-03-05T08:53:55.755Z,4.40
2023-03-05T08:56:22.389Z,4.60
2023-03-05T08:58:49.369Z,4.60
2023-03-05T09:01:15.987Z,4.70
2023-03-05T09:03:42.632Z,4.60
2023-03-05T09:06:10.369Z,4.80
2023-03-05T09:08:36.995Z,4.90
2023-03-05T09:11:04.371Z,5.80
2023-03-05T09:13:30.990Z,5.00
2023-03-05T09:15:58.895Z,5.10
2023-03-05T09:18:25.687Z,5.00
2023-03-05T09:20:52.713Z,5.10
2023-03-05T09:23:19.585Z,5.00
2023-03-05T09:25:46.226Z,4.90
2023-03-05T09:28:12.898Z,4.90
2023-03-05T09:30:39.480Z,5.00
2023-03-05T09:33:06.104Z,4.90
2023-03-05T09:35:35.040Z,7.60
2023-03-05T09:38:02.178Z,5.10
2023-03-05T09:40:31.920Z,5.30
2023-03-05T09:43:21.882Z,5.10
2023-03-05T09:46:17.929Z,5.20
2023-03-05T09:48:52.046Z,5.90
2023-03-05T09:51:26.038Z,5.20
2023-03-05T09:53:57.505Z,5.10
2023-03-05T09:56:26.810Z,5.20
2023-03-05T09:58:56.228Z,5.30
2023-03-05T10:01:27.070Z,5.30
2023-03-05T10:03:57.354Z,5.30
2023-03-05T10:06:26.181Z,5.30
2023-03-05T10:09:11.113Z,5.30
2023-03-05T10:11:49.265Z,5.20
2023-03-05T10:14:23.714Z,5.10
2023-03-05T10:16:53.940Z,4.80
2023-03-05T10:19:26.393Z,4.90
2023-03-05T10:21:56.878Z,4.90
2023-03-05T10:24:44.493Z,4.90
2023-03-05T10:27:19.201Z,5.10
2023-03-05T10:30:04.917Z,5.10
2023-03-05T10:32:36.583Z,5.10
2023-03-05T10:35:22.017Z,5.20
2023-03-05T10:37:54.976Z,5.40
2023-03-05T10:40:24.377Z,5.40
2023-03-05T10:42:58.709Z,5.40
2023-03-05T10:45:28.393Z,5.10
2023-03-05T10:48:15.822Z,5.20
2023-03-05T10:50:44.828Z,5.30
2023-03-05T10:53:27.656Z,5.30
2023-03-05T10:55:56.515Z,7.60
2023-03-05T10:58:24.755Z,5.20
2023-03-05T11:00:58.598Z,5.00
2023-03-05T11:03:25.229Z,5.20
2023-03-05T11:05:58.924Z,5.40
2023-03-05T11:08:25.512Z,5.60
2023-03-05T11:11:12.410Z,5.70
2023-03-05T11:13:44.235Z,5.50
2023-03-05T11:16:33.972Z,5.60
2023-03-05T11:19:12.822Z,5.80
2023-03-05T11:21:40.004Z,5.70
2023-03-05T11:24:13.694Z,5.80
2023-03-05T11:26:48.216Z,5.70
2023-03-05T11:29:19.563Z,5.70
2023-03-05T11:31:46.237Z,5.70
2023-03-05T11:34:35.432Z,6.00
2023-03-05T11:37:06.421Z,6.20
2023-03-05T11:39:36.713Z,6.30
2023-03-05T11:42:03.268Z,6.50
2023-03-05T11:44:29.830Z,6.20
2023-03-05T11:46:59.561Z,6.10
2023-03-05T11:49:28.103Z,5.80
2023-03-05T11:52:08.058Z,5.70
2023-03-05T11:54:42.351Z,5.80
2023-03-05T11:57:12.275Z,6.00
2023-03-05T11:59:41.712Z,6.30
2023-03-05T12:02:17.709Z,6.80
2023-03-05T12:04:45.674Z,7.10
2023-03-05T12:07:14.779Z,7.40
2023-03-05T12:09:47.645Z,7.70
2023-03-05T12:12:36.101Z,8.00
2023-03-05T12:15:14.753Z,7.80
2023-03-05T12:17:50.570Z,7.60
2023-03-05T12:20:20.187Z,7.30
2023-03-05T12:22:46.980Z,7.30
2023-03-05T12:25:23.485Z,7.10
2023-03-05T12:27:50.074Z,6.90
2023-03-05T12:30:48.918Z,6.60
2023-03-05T12:33:35.179Z,6.70
2023-03-05T12:36:20.512Z,6.90
2023-03-05T12:38:51.982Z,6.90
2023-03-05T12:41:27.463Z,6.80
2023-03-05T12:44:06.569Z,6.70
2023-03-05T12:46:37.557Z,6.90
2023-03-05T12:49:23.420Z,7.10
2023-03-05T12:51:51.289Z,7.30
2023-03-05T12:54:31.727Z,7.30
2023-03-05T12:57:02.494Z,7.20
2023-03-05T12:59:39.413Z,7.20
2023-03-05T13:02:16.630Z,7.30
2023-03-05T13:04:45.162Z,7.40
2023-03-05T13:07:15.817Z,7.50
2023-03-05T13:09:51.027Z,7.50
2023-03-05T13:12:17.695Z,7.40
2023-03-05T13:14:45.532Z,7.30
2023-03-05T13:17:27.238Z,7.50
2023-03-05T13:19:53.842Z,7.60
2023-03-05T13:22:20.585Z,7.60
2023-03-05T13:24:47.302Z,7.50
2023-03-05T13:27:22.196Z,7.40
2023-03-05T13:29:52.554Z,7.10
2023-03-05T13:32:37.145Z,7.40
2023-03-05T13:35:11.977Z,7.50
2023-03-05T13:37:38.554Z,7.60
2023-03-05T13:40:15.682Z,7.70
2023-03-05T13:42:42.454Z,7.80
2023-03-05T13:45:26.053Z,7.80
2023-03-05T13:47:59.829Z,7.80
2023-03-05T13:50:28.350Z,7.80
2023-03-05T13:52:55.182Z,7.70
2023-03-05T13:55:21.859Z,7.60
2023-03-05T13:57:52.970Z,7.60
2023-03-05T14:00:30.376Z,7.50
2023-03-05T14:02:59.760Z,7.50
2023-03-05T14:05:27.016Z,7.50
2023-03-05T14:07:54.787Z,7.10
2023-03-05T14:10:32.832Z,6.90
2023-03-05T14:13:00.439Z,6.90
2023-03-05T14:15:28.411Z,7.00
2023-03-05T14:18:13.290Z,6.90
2023-03-05T14:20:40.915Z,6.60
2023-03-05T14:23:27.173Z,6.60
2023-03-05T14:26:10.933Z,6.70
2023-03-05T14:28:37.722Z,8.10
2023-03-05T14:31:14.226Z,6.60
2023-03-05T14:33:40.870Z,6.30
2023-03-05T14:36:08.014Z,6.30
2023-03-05T14:38:35.167Z,6.30
2023-03-05T14:41:20.342Z,8.20
2023-03-05T14:43:46.938Z,6.40
2023-03-05T14:46:13.801Z,6.20
2023-03-05T14:48:40.444Z,6.20
2023-03-05T14:51:07.495Z,6.20
2023-03-05T14:53:46.972Z,6.30
2023-03-05T14:56:17.818Z,6.40
2023-03-05T14:58:44.398Z,6.20
2023-03-05T15:01:14.106Z,6.30
2023-03-05T15:03:41.627Z,6.10
2023-03-05T15:06:13.540Z,6.20
2023-03-05T15:08:40.205Z,6.20
2023-03-05T15:11:06.810Z,6.10
2023-03-05T15:13:34.686Z,6.00
2023-03-05T15:16:01.369Z,6.00
2023-03-05T15:18:28.009Z,5.90
2023-03-05T15:20:57.017Z,6.00
2023-03-05T15:23:23.633Z,5.90
2023-03-05T15:25:50.201Z,6.00
2023-03-05T15:28:17.189Z,5.90
2023-03-05T15:30:44.864Z,5.80
2023-03-05T15:33:13.006Z,5.80
2023-03-05T15:35:39.821Z,5.80
2023-03-05T15:38:06.511Z,5.80
2023-03-05T15:40:33.352Z,5.90
2023-03-05T15:43:00.272Z,5.90
2023-03-05T15:45:27.513Z,5.80
2023-03-05T15:47:54.238Z,5.70
2023-03-05T15:50:22.004Z,5.70
2023-03-05T15:52:49.242Z,5.60
2023-03-05T15:55:17.567Z,5.50
2023-03-05T15:57:45.261Z,5.50
2023-03-05T16:00:12.930Z,5.60
2023-03-05T16:02:39.556Z,5.70
2023-03-05T16:05:09.624Z,5.60
2023-03-05T16:07:38.882Z,5.70
2023-03-05T16:10:06.214Z,5.60
2023-03-05T16:12:40.537Z,5.50
2023-03-05T16:15:08.164Z,5.30
2023-03-05T16:17:34.847Z,5.40
2023-03-05T16:20:01.475Z,5.40
2023-03-05T16:22:28.070Z,6.40
2023-03-05T16:24:54.706Z,7.00
2023-03-05T16:27:21.279Z,5.20
2023-03-05T16:29:47.859Z,5.30
2023-03-05T16:32:14.465Z,5.10
2023-03-05T16:34:41.094Z,5.10
2023-03-05T16:37:07.681Z,5.00
2023-03-05T16:39:34.323Z,4.90
2023-03-05T16:42:01.045Z,5.00
2023-03-05T16:44:27.634Z,5.00
2023-03-05T16:46:56.312Z,4.80
2023-03-05T16:49:22.955Z,4.80
2023-03-05T16:51:49.516Z,4.90
2023-03-05T16:54:16.181Z,4.80
2023-03-05T16:56:42.821Z,4.90
2023-03-05T16:59:09.519Z,4.90
2023-03-05T17:01:36.119Z,4.80
2023-03-05T17:04:03.644Z,4.80
2023-03-05T17:06:31.567Z,4.80
2023-03-05T17:08:59.097Z,4.80
2023-03-05T17:11:25.901Z,4.80
2023-03-05T17:13:52.566Z,4.70
2023-03-05T17:16:20.200Z,4.70
2023-03-05T17:18:47.030Z,4.70
2023-03-05T17:21:13.748Z,4.80
2023-03-05T17:23:40.652Z,4.70
2023-03-05T17:26:09.247Z,4.70
2023-03-05T17:28:36.013Z,4.70
2023-03-05T17:31:03.874Z,4.80
2023-03-05T17:33:32.342Z,4.70
2023-03-05T17:35:59.027Z,4.70
2023-03-05T17:38:26.127Z,4.70
2023-03-05T17:40:52.740Z,4.60
2023-03-05T17:43:19.417Z,4.70
2023-03-05T17:45:47.181Z,4.70
2023-03-05T17:48:14.101Z,4.70
2023-03-05T17:50:40.773Z,4.70
2023-03-05T17:53:07.417Z,4.70
2023-03-05T17:55:34.023Z,4.70
2023-03-05T17:58:00.587Z,4.60
2023-03-05T18:00:28.217Z,4.70
2023-03-05T18:02:55.039Z,4.70
2023-03-05T18:05:23.043Z,4.70
2023-03-05T18:07:50.087Z,4.70
2023-03-05T18:10:17.731Z,4.60
2023-03-05T18:12:44.478Z,4.50
2023-03-05T18:15:12.112Z,4.40
2023-03-05T18:17:38.968Z,4.40
2023-03-05T18:20:06.400Z,4.40
2023-03-05T18:22:33.350Z,4.50
2023-03-05T18:24:59.934Z,4.40
2023-03-05T18:27:26.624Z,4.50
2023-03-05T18:29:54.233Z,4.40
2023-03-05T18:32:21.799Z,4.40
2023-03-05T18:34:50.486Z,4.40
2023-03-05T18:37:17.285Z,4.40
2023-03-05T18:39:43.881Z,4.40
2023-03-05T18:42:12.348Z,4.40
2023-03-05T18:44:39.053Z,4.40
2023-03-05T18:47:05.650Z,4.40
2023-03-05T18:49:32.312Z,4.40
2023-03-05T18:51:58.887Z,4.40
2023-03-05T18:54:25.476Z,4.40
2023-03-05T18:56:52.037Z,4.30
2023-03-05T18:59:18.604Z,4.30
2023-03-05T19:01:45.256Z,4.30
2023-03-05T19:04:11.996Z,4.30
2023-03-05T19:06:38.705Z,4.30
2023-03-05T19:09:08.545Z,4.30
2023-03-05T19:11:35.261Z,4.30
2023-03-05T19:14:01.851Z,4.30
2023-03-05T19:16:30.972Z,4.30
2023-03-05T19:19:16.359Z,4.20
2023-03-05T19:21:44.290Z,4.20
2023-03-05T19:24:11.381Z,4.20
2023-03-05T19:26:38.888Z,4.20
2023-03-05T19:29:05.818Z,4.20
2023-03-05T19:31:32.459Z,4.20
2023-03-05T19:33:59.116Z,4.20
2023-03-05T19:36:25.823Z,4.20
2023-03-05T19:38:52.600Z,4.20
2023-03-05T19:41:21.581Z,4.20
2023-03-05T19:43:49.834Z,4.20
2023-03-05T19:46:17.409Z,4.20
2023-03-05T19:48:45.519Z,4.20
2023-03-05T19:51:14.416Z,4.20
2023-03-05T19:53:41.679Z,4.20
2023-03-05T19:56:08.991Z,6.30
2023-03-05T19:58:36.284Z,4.20
2023-03-05T20:01:13.846Z,4.10
2023-03-05T20:03:40.556Z,4.10
2023-03-05T20:06:07.500Z,4.00
2023-03-05T20:08:34.417Z,4.10
2023-03-05T20:11:01.382Z,4.00
2023-03-05T20:13:28.262Z,4.00
2023-03-05T20:15:54.960Z,4.10
2023-03-05T20:18:21.644Z,4.00
2023-03-05T20:20:54.733Z,4.00
2023-03-05T20:23:21.836Z,3.90
2023-03-05T20:25:48.651Z,3.90
2023-03-05T20:28:15.334Z,3.90
2023-03-05T20:30:43.737Z,3.90
2023-03-05T20:33:10.775Z,3.90
2023-03-05T20:35:37.799Z,3.90
2023-03-05T20:38:20.916Z,3.90
2023-03-05T20:41:06.474Z,4.00
2023-03-05T20:43:34.320Z,3.90
2023-03-05T20:46:01.317Z,3.90
2023-03-05T20:48:32.205Z,3.90
2023-03-05T20:51:01.403Z,3.90
2023-03-05T20:53:28.052Z,3.90
2023-03-05T20:55:54.690Z,3.90
2023-03-05T20:58:21.384Z,3.90
2023-03-05T21:00:48.050Z,3.90
2023-03-05T21:03:14.656Z,3.90
2023-03-05T21:05:41.373Z,3.90
2023-03-05T21:08:07.965Z,3.90
2023-03-05T21:10:34.613Z,3.90
2023-03-05T21:13:01.259Z,3.90
2023-03-05T21:15:29.566Z,3.90
2023-03-05T21:17:56.817Z,3.90
2023-03-05T21:20:26.948Z,3.90
2023-03-05T21:22:54.392Z,3.90
2023-03-05T21:25:22.215Z,3.90
2023-03-05T21:27:48.878Z,3.90
2023-03-05T21:30:16.284Z,3.80
2023-03-05T21:32:43.130Z,3.80
2023-03-05T21:35:13.056Z,3.80
2023-03-05T21:37:42.593Z,3.90
2023-03-05T21:40:10.723Z,3.80
2023-03-05T21:42:37.316Z,3.80
2023-03-05T21:45:05.178Z,3.80
2023-03-05T21:47:31.780Z,3.80
2023-03-05T21:49:58.375Z,3.80
2023-03-05T21:52:24.962Z,3.70
2023-03-05T21:54:53.789Z,3.70
2023-03-05T21:57:20.624Z,3.70
2023-03-05T21:59:47.363Z,4.00
2023-03-05T22:02:15.111Z,3.70
2023-03-05T22:04:41.903Z,3.70
2023-03-05T22:07:08.525Z,3.80
2023-03-05T22:09:35.140Z,3.70
2023-03-05T22:12:02.124Z,3.70
2023-03-05T22:14:28.709Z,3.70
2023-03-05T22:16:59.484Z,3.70
2023-03-05T22:19:26.213Z,3.70
2023-03-05T22:21:52.847Z,3.50
2023-03-05T22:24:19.429Z,3.70
2023-03-05T22:26:46.136Z,3.70
2023-03-05T22:29:13.135Z,3.70
2023-03-05T22:31:40.485Z,3.60
2023-03-05T22:34:07.160Z,3.70
2023-03-05T22:36:33.760Z,3.70
2023-03-05T22:39:00.432Z,3.60
2023-03-05T22:41:27.128Z,3.60
2023-03-05T22:43:53.722Z,3.60
2023-03-05T22:46:21.777Z,3.60
2023-03-05T22:48:48.709Z,3.60
2023-03-05T22:51:16.022Z,3.60
2023-03-05T22:53:42.734Z,3.60
2023-03-05T22:56:14.333Z,3.60
2023-03-05T22:58:41.128Z,3.70
2023-03-05T23:01:15.041Z,3.70
2023-03-05T23:03:42.386Z,3.60
2023-03-05T23:06:09.260Z,3.60
2023-03-05T23:08:36.368Z,3.60
2023-03-05T23:11:07.431Z,3.60
2023-03-05T23:13:34.004Z,3.60
2023-03-05T23:16:00.692Z,3.60
2023-03-05T23:18:27.276Z,3.60
2023-03-05T23:20:53.911Z,3.60
2023-03-05T23:23:20.649Z,3.50
2023-03-05T23:25:49.707Z,3.50
2023-03-05T23:28:16.559Z,3.50
2023-03-05T23:30:43.175Z,3.50
2023-03-05T23:33:09.726Z,3.50
2023-03-05T23:35:37.787Z,3.50
2023-03-05T23:38:05.743Z,3.50
2023-03-05T23:40:34.209Z,3.50
2023-03-05T23:43:00.794Z,3.50
2023-03-05T23:45:27.742Z,3.50
2023-03-05T23:47:54.448Z,3.50
2023-03-05T23:50:25.165Z,3.50
2023-03-05T23:52:51.992Z,3.50
2023-03-05T23:55:20.280Z,3.60
2023-03-05T23:57:47.145Z,3.50
